createdAt,value
2018-09-25T00:01:50.001Z,57.85
2018-09-25T00:04:25.644Z,57.63
2018-09-25T00:07:01.441Z,57.54
2018-09-25T00:09:36.849Z,57.94
2018-09-25T00:12:13.904Z,58.19
2018-09-25T00:14:49.672Z,58.31
2018-09-25T00:17:25.510Z,58.36
2018-09-25T00:20:01.504Z,58.78
2018-09-25T00:22:37.175Z,59.18
2018-09-25T00:25:13.047Z,59.08
2018-09-25T00:27:49.033Z,59.57
2018-09-25T00:30:32.344Z,59.91
2018-09-25T00:33:08.228Z,60.50
2018-09-25T00:35:43.912Z,60.93
2018-09-25T00:38:19.417Z,60.89
2018-09-25T00:40:54.691Z,60.89
2018-09-25T00:43:30.521Z,61.16
2018-09-25T00:46:05.932Z,60.46
2018-09-25T00:48:41.628Z,59.85
2018-09-25T00:51:17.208Z,59.06
2018-09-25T00:53:53.100Z,59.21
2018-09-25T00:56:28.696Z,58.54
2018-09-25T00:59:04.467Z,58.15
2018-09-25T01:01:40.090Z,58.51
2018-09-25T01:04:17.215Z,58.15
2018-09-25T01:06:52.932Z,58.44
2018-09-25T01:09:28.768Z,58.13
2018-09-25T01:12:04.638Z,58.34
2018-09-25T01:14:40.260Z,58.31
2018-09-25T01:17:16.447Z,58.67
2018-09-25T01:19:52.361Z,58.31
2018-09-25T01:22:28.179Z,58.49
2018-09-25T01:25:03.901Z,58.77
2018-09-25T01:27:39.431Z,58.49
2018-09-25T01:30:15.617Z,58.41
2018-09-25T01:32:51.670Z,58.81
2018-09-25T01:35:28.034Z,58.61
2018-09-25T01:38:03.724Z,58.39
2018-09-25T01:40:39.302Z,58.00
2018-09-25T01:43:15.128Z,57.51
2018-09-25T01:45:50.935Z,57.84
2018-09-25T01:48:26.994Z,58.19
2018-09-25T01:51:02.760Z,58.63
2018-09-25T01:53:38.589Z,58.50
2018-09-25T01:56:14.703Z,59.17
2018-09-25T01:58:50.512Z,59.10
2018-09-25T02:01:26.535Z,59.01
2018-09-25T02:04:02.271Z,58.80
2018-09-25T02:06:37.864Z,58.63
2018-09-25T02:09:14.551Z,58.67
2018-09-25T02:11:50.466Z,59.13
2018-09-25T02:14:26.606Z,58.86
2018-09-25T02:17:02.647Z,59.04
2018-09-25T02:19:38.164Z,59.28
2018-09-25T02:22:13.902Z,59.56
2018-09-25T02:24:49.839Z,59.77
2018-09-25T02:27:25.667Z,59.50
2018-09-25T02:30:01.232Z,59.98
2018-09-25T02:32:37.452Z,59.74
2018-09-25T02:35:14.685Z,59.87
2018-09-25T02:37:50.257Z,59.74
2018-09-25T02:40:25.920Z,60.08
2018-09-25T02:43:01.788Z,59.85
2018-09-25T02:45:37.989Z,60.21
2018-09-25T02:48:13.926Z,60.62
2018-09-25T02:50:49.553Z,60.92
2018-09-25T02:53:25.317Z,60.90
2018-09-25T02:56:00.982Z,60.85
2018-09-25T02:58:36.506Z,60.96
2018-09-25T03:01:12.231Z,60.84
2018-09-25T03:03:47.663Z,61.18
2018-09-25T03:06:23.539Z,60.87
2018-09-25T03:08:59.411Z,61.04
2018-09-25T03:11:35.275Z,61.20
2018-09-25T03:16:53.200Z,61.18
2018-09-25T03:19:28.564Z,61.16
2018-09-25T03:22:04.341Z,60.37
2018-09-25T03:24:39.955Z,61.16
2018-09-25T03:27:18.368Z,61.11
2018-09-25T03:29:53.964Z,61.05
2018-09-25T03:32:29.648Z,60.31
2018-09-25T03:35:05.304Z,60.30
2018-09-25T03:37:40.827Z,60.26
2018-09-25T03:40:17.084Z,59.35
2018-09-25T03:42:52.908Z,59.10
2018-09-25T03:45:28.648Z,59.20
2018-09-25T03:48:04.358Z,58.87
2018-09-25T03:50:39.862Z,58.91
2018-09-25T03:53:17.918Z,59.02
2018-09-25T03:55:53.696Z,58.82
2018-09-25T03:58:29.571Z,58.85
2018-09-25T04:01:05.275Z,59.38
2018-09-25T04:03:41.275Z,59.44
2018-09-25T04:06:16.862Z,59.41
2018-09-25T04:08:53.530Z,59.75
2018-09-25T04:11:29.624Z,60.14
2018-09-25T04:14:04.888Z,59.97
2018-09-25T04:16:41.928Z,60.25
2018-09-25T04:19:17.583Z,60.01
2018-09-25T04:21:53.356Z,60.46
2018-09-25T04:24:29.046Z,60.66
2018-09-25T04:27:04.925Z,60.89
2018-09-25T04:29:40.897Z,59.98
2018-09-25T04:32:16.770Z,60.45
2018-09-25T04:34:52.560Z,60.63
2018-09-25T04:37:28.346Z,60.47
2018-09-25T04:40:04.633Z,60.98
2018-09-25T04:42:40.272Z,60.90
2018-09-25T04:45:18.518Z,61.38
2018-09-25T04:47:54.395Z,60.89
2018-09-25T04:50:30.216Z,60.55
2018-09-25T04:53:05.991Z,61.01
2018-09-25T04:55:41.585Z,61.33
2018-09-25T04:58:17.365Z,61.22
2018-09-25T05:00:53.363Z,61.15
2018-09-25T05:03:29.016Z,60.76
2018-09-25T05:06:05.672Z,61.13
2018-09-25T05:08:41.653Z,61.32
2018-09-25T05:11:17.765Z,61.39
2018-09-25T05:13:53.578Z,61.58
2018-09-25T05:16:29.129Z,61.54
2018-09-25T05:19:05.626Z,61.66
2018-09-25T05:21:41.459Z,61.56
2018-09-25T05:24:17.264Z,61.73
2018-09-25T05:26:52.859Z,61.74
2018-09-25T05:29:28.694Z,61.85
2018-09-25T05:32:04.452Z,61.65
2018-09-25T05:34:40.277Z,61.82
2018-09-25T05:37:15.852Z,61.55
2018-09-25T05:39:51.907Z,60.77
2018-09-25T05:42:27.306Z,61.74
2018-09-25T05:45:03.165Z,61.68
2018-09-25T05:47:39.772Z,62.06
2018-09-25T05:50:15.467Z,62.14
2018-09-25T05:52:51.080Z,61.96
2018-09-25T05:55:29.498Z,61.90
2018-09-25T05:58:05.953Z,62.04
2018-09-25T06:00:41.536Z,62.20
2018-09-25T06:03:17.105Z,61.63
2018-09-25T06:05:53.189Z,61.25
2018-09-25T06:08:29.479Z,61.54
2018-09-25T06:11:05.214Z,61.78
2018-09-25T06:13:40.776Z,61.56
2018-09-25T06:16:16.363Z,61.48
2018-09-25T06:18:52.360Z,60.82
2018-09-25T06:21:28.678Z,60.57
2018-09-25T06:24:04.520Z,60.85
2018-09-25T06:26:40.317Z,60.52
2018-09-25T06:29:16.723Z,60.36
2018-09-25T06:31:52.573Z,60.12
2018-09-25T06:34:28.165Z,60.48
2018-09-25T06:37:04.631Z,59.91
2018-09-25T06:39:41.407Z,59.69
2018-09-25T06:42:17.332Z,59.85
2018-09-25T06:44:52.996Z,59.36
2018-09-25T06:47:28.618Z,59.24
2018-09-25T06:50:04.201Z,58.67
2018-09-25T06:52:39.844Z,58.93
2018-09-25T06:55:15.926Z,58.90
2018-09-25T06:57:51.797Z,58.35
2018-09-25T07:00:27.691Z,58.15
2018-09-25T07:03:03.276Z,57.97
2018-09-25T07:05:38.907Z,58.34
2018-09-25T07:08:14.830Z,58.33
2018-09-25T07:10:50.221Z,57.52
2018-09-25T07:13:26.327Z,58.21
2018-09-25T07:16:01.943Z,57.00
2018-09-25T07:18:37.741Z,57.01
2018-09-25T07:21:13.547Z,56.99
2018-09-25T07:23:49.272Z,56.39
2018-09-25T07:26:24.803Z,56.55
2018-09-25T07:29:00.654Z,56.76
2018-09-25T07:31:36.080Z,56.23
2018-09-25T07:34:12.000Z,56.41
2018-09-25T07:36:47.666Z,55.97
2018-09-25T07:39:23.537Z,55.95
2018-09-25T07:41:59.391Z,55.26
2018-09-25T07:44:35.085Z,55.65
2018-09-25T07:47:11.025Z,54.67
2018-09-25T07:49:46.808Z,53.91
2018-09-25T07:52:22.628Z,53.92
2018-09-25T07:54:58.421Z,53.93
2018-09-25T07:57:33.838Z,53.57
2018-09-25T08:00:09.689Z,52.94
2018-09-25T08:02:45.411Z,53.02
2018-09-25T08:05:20.996Z,53.27
2018-09-25T08:07:57.639Z,52.86
2018-09-25T08:10:33.321Z,52.98
2018-09-25T08:13:08.883Z,53.19
2018-09-25T08:15:45.150Z,53.73
2018-09-25T08:18:20.679Z,52.75
2018-09-25T08:20:56.329Z,52.61
2018-09-25T08:23:32.269Z,53.03
2018-09-25T08:26:08.144Z,52.56
2018-09-25T08:28:44.604Z,51.62
2018-09-25T08:31:21.284Z,53.18
2018-09-25T08:33:57.293Z,52.91
2018-09-25T08:36:33.158Z,51.92
2018-09-25T08:39:09.090Z,51.69
2018-09-25T08:41:45.617Z,52.10
2018-09-25T08:44:21.465Z,51.57
2018-09-25T08:46:59.056Z,51.88
2018-09-25T08:49:34.567Z,52.29
2018-09-25T08:52:10.786Z,51.05
2018-09-25T08:54:46.258Z,51.00
2018-09-25T08:57:22.328Z,51.23
2018-09-25T08:59:57.751Z,51.61
2018-09-25T09:02:33.710Z,51.63
2018-09-25T09:05:09.756Z,50.84
2018-09-25T09:07:45.210Z,51.12
2018-09-25T09:10:20.991Z,51.27
2018-09-25T09:12:56.456Z,50.11
2018-09-25T09:15:32.540Z,50.38
2018-09-25T09:18:08.453Z,47.23
2018-09-25T09:20:44.330Z,48.42
2018-09-25T09:23:20.650Z,46.55
2018-09-25T09:25:56.554Z,49.31
2018-09-25T09:28:32.176Z,49.08
2018-09-25T09:31:07.784Z,50.41
2018-09-25T09:33:43.390Z,44.56
2018-09-25T09:36:19.232Z,41.05
2018-09-25T09:38:55.042Z,39.93
2018-09-25T09:41:30.946Z,35.63
2018-09-25T09:44:07.322Z,35.28
2018-09-25T09:46:43.021Z,39.04
2018-09-25T09:49:18.883Z,43.26
2018-09-25T09:51:54.613Z,44.68
2018-09-25T09:54:30.023Z,44.52
2018-09-25T09:57:06.728Z,39.41
2018-09-25T09:59:42.418Z,35.58
2018-09-25T10:02:18.764Z,32.16
2018-09-25T10:04:54.578Z,40.69
2018-09-25T10:07:30.746Z,43.21
2018-09-25T10:10:07.777Z,41.15
2018-09-25T10:12:43.514Z,36.03
2018-09-25T10:15:19.289Z,35.84
2018-09-25T10:18:01.085Z,34.27
2018-09-25T10:20:45.799Z,38.63
2018-09-25T10:23:21.572Z,40.03
2018-09-25T10:25:57.417Z,42.55
2018-09-25T10:28:33.011Z,42.73
2018-09-25T10:31:08.866Z,43.32
2018-09-25T10:33:44.783Z,38.58
2018-09-25T10:39:25.412Z,33.94
2018-09-25T10:42:01.503Z,32.99
2018-09-25T10:44:37.170Z,37.08
2018-09-25T10:47:13.659Z,39.59
2018-09-25T10:49:52.324Z,39.92
2018-09-25T10:52:28.328Z,41.46
2018-09-25T10:55:03.783Z,42.05
2018-09-25T10:57:42.050Z,42.67
2018-09-25T11:00:17.781Z,42.26
2018-09-25T11:02:54.600Z,42.68
2018-09-25T11:05:30.741Z,42.99
2018-09-25T11:08:07.284Z,42.44
2018-09-25T11:10:43.181Z,42.69
2018-09-25T11:13:18.942Z,42.45
2018-09-25T11:15:55.021Z,42.71
2018-09-25T11:18:31.493Z,42.19
2018-09-25T11:21:07.442Z,42.57
2018-09-25T11:23:43.310Z,42.44
2018-09-25T11:26:18.908Z,42.46
2018-09-25T11:28:54.549Z,42.52
2018-09-25T11:31:30.352Z,42.71
2018-09-25T11:34:06.240Z,42.34
2018-09-25T11:36:42.741Z,43.00
2018-09-25T11:39:18.590Z,42.59
2018-09-25T11:41:54.368Z,42.66
2018-09-25T11:44:30.222Z,43.47
2018-09-25T11:47:07.078Z,42.59
2018-09-25T11:49:43.008Z,42.21
2018-09-25T11:52:19.041Z,42.08
2018-09-25T11:54:55.886Z,41.80
2018-09-25T11:57:32.599Z,40.57
2018-09-25T12:00:09.383Z,40.36
2018-09-25T12:02:45.931Z,40.52
2018-09-25T12:05:23.677Z,40.92
2018-09-25T12:07:59.508Z,41.69
2018-09-25T12:10:35.401Z,41.99
2018-09-25T12:13:10.884Z,41.98
2018-09-25T12:15:46.394Z,42.31
2018-09-25T12:18:22.069Z,42.23
2018-09-25T12:20:57.757Z,42.19
2018-09-25T12:23:34.423Z,42.89
2018-09-25T12:26:09.906Z,42.70
2018-09-25T12:28:45.786Z,42.63
2018-09-25T12:31:21.481Z,41.22
2018-09-25T12:33:57.290Z,40.08
2018-09-25T12:36:32.716Z,40.73
2018-09-25T12:39:08.323Z,39.92
2018-09-25T12:41:44.034Z,40.08
2018-09-25T12:44:19.890Z,40.30
2018-09-25T12:46:55.996Z,40.19
2018-09-25T12:49:31.548Z,40.40
2018-09-25T12:52:07.034Z,41.19
2018-09-25T12:54:42.843Z,39.75
2018-09-25T12:57:18.592Z,39.54
2018-09-25T12:59:54.600Z,39.30
2018-09-25T13:02:30.286Z,36.67
2018-09-25T13:05:06.125Z,36.82
2018-09-25T13:07:41.997Z,37.20
2018-09-25T13:10:17.811Z,36.02
2018-09-25T13:12:53.577Z,35.97
2018-09-25T13:15:29.109Z,37.22
2018-09-25T13:18:04.898Z,37.41
2018-09-25T13:20:40.627Z,37.24
2018-09-25T13:23:18.205Z,39.36
2018-09-25T13:25:53.794Z,40.25
2018-09-25T13:28:29.364Z,40.95
2018-09-25T13:31:04.821Z,40.49
2018-09-25T13:33:40.639Z,40.40
2018-09-25T13:36:16.307Z,40.41
2018-09-25T13:38:52.124Z,40.42
2018-09-25T13:41:28.012Z,39.92
2018-09-25T13:44:03.680Z,39.80
2018-09-25T13:46:39.984Z,38.67
2018-09-25T13:49:15.757Z,37.72
2018-09-25T13:51:51.514Z,37.16
2018-09-25T13:54:27.082Z,36.81
2018-09-25T13:57:02.937Z,36.24
2018-09-25T13:59:38.778Z,36.43
2018-09-25T14:02:14.332Z,37.46
2018-09-25T14:04:49.874Z,37.71
2018-09-25T14:07:26.003Z,37.59
2018-09-25T14:10:02.065Z,38.38
2018-09-25T14:12:39.107Z,37.72
2018-09-25T14:15:15.480Z,38.18
2018-09-25T14:17:50.857Z,37.63
2018-09-25T14:20:26.943Z,37.98
2018-09-25T14:23:02.871Z,37.06
2018-09-25T14:25:38.756Z,36.68
2018-09-25T14:28:14.669Z,36.63
2018-09-25T14:30:51.872Z,36.53
2018-09-25T14:33:27.505Z,37.60
2018-09-25T14:36:03.701Z,37.43
2018-09-25T14:38:41.126Z,37.54
2018-09-25T14:41:18.302Z,37.73
2018-09-25T14:43:54.187Z,37.81
2018-09-25T14:46:30.088Z,38.07
2018-09-25T14:49:06.366Z,38.54
2018-09-25T14:51:42.232Z,37.83
2018-09-25T14:54:18.202Z,38.42
2018-09-25T14:56:54.080Z,38.02
2018-09-25T14:59:29.640Z,38.72
2018-09-25T15:02:05.461Z,38.12
2018-09-25T15:04:41.121Z,38.11
2018-09-25T15:07:16.997Z,37.78
2018-09-25T15:09:53.084Z,37.13
2018-09-25T15:12:28.847Z,37.75
2018-09-25T15:15:04.716Z,38.03
2018-09-25T15:17:40.451Z,37.87
2018-09-25T15:20:16.006Z,37.84
2018-09-25T15:22:51.582Z,37.41
2018-09-25T15:25:27.459Z,37.69
2018-09-25T15:28:03.059Z,37.71
2018-09-25T15:30:38.730Z,38.45
2018-09-25T15:33:14.331Z,38.12
2018-09-25T15:35:50.248Z,38.41
2018-09-25T15:38:26.260Z,38.73
2018-09-25T15:41:02.032Z,39.48
2018-09-25T15:43:52.436Z,38.43
2018-09-25T15:46:29.310Z,38.43
2018-09-25T15:49:05.895Z,38.19
2018-09-25T15:51:41.799Z,38.31
2018-09-25T15:54:17.417Z,38.53
2018-09-25T15:56:54.531Z,38.37
2018-09-25T15:59:30.549Z,37.81
2018-09-25T16:02:06.115Z,38.82
2018-09-25T16:04:41.996Z,38.20
2018-09-25T16:07:18.519Z,38.48
2018-09-25T16:09:54.451Z,38.79
2018-09-25T16:12:31.311Z,39.03
2018-09-25T16:15:06.884Z,39.65
2018-09-25T16:17:42.786Z,39.54
2018-09-25T16:20:18.454Z,40.06
2018-09-25T16:22:53.898Z,40.07
2018-09-25T16:25:29.692Z,40.44
2018-09-25T16:28:06.011Z,40.74
2018-09-25T16:30:42.726Z,40.51
2018-09-25T16:33:20.845Z,41.18
2018-09-25T16:35:56.719Z,41.15
2018-09-25T16:38:32.615Z,41.74
2018-09-25T16:41:08.422Z,42.04
2018-09-25T16:43:43.809Z,41.77
2018-09-25T16:46:19.888Z,41.77
2018-09-25T16:48:55.545Z,41.56
2018-09-25T16:51:31.719Z,42.07
2018-09-25T16:54:07.696Z,42.49
2018-09-25T16:56:43.173Z,43.22
2018-09-25T16:59:19.590Z,43.67
2018-09-25T17:01:55.350Z,43.51
2018-09-25T17:04:32.263Z,44.71
2018-09-25T17:07:08.272Z,44.73
2018-09-25T17:09:44.151Z,45.00
2018-09-25T17:12:20.104Z,44.98
2018-09-25T17:14:55.753Z,45.14
2018-09-25T17:17:31.316Z,45.16
2018-09-25T17:20:07.051Z,46.00
2018-09-25T17:22:42.832Z,45.75
2018-09-25T17:25:18.417Z,46.05
2018-09-25T17:27:53.934Z,46.51
2018-09-25T17:30:29.875Z,46.50
2018-09-25T17:33:05.753Z,46.54
2018-09-25T17:35:41.556Z,46.82
2018-09-25T17:38:17.440Z,47.01
2018-09-25T17:40:53.293Z,47.48
2018-09-25T17:43:29.435Z,47.63
2018-09-25T17:46:05.206Z,48.11
2018-09-25T17:48:40.784Z,48.22
2018-09-25T17:51:16.864Z,48.46
2018-09-25T17:53:52.725Z,48.55
2018-09-25T17:56:28.612Z,48.97
2018-09-25T17:59:04.452Z,48.58
2018-09-25T18:01:40.230Z,47.97
2018-09-25T18:04:16.227Z,48.00
2018-09-25T18:06:51.826Z,47.29
2018-09-25T18:09:27.889Z,47.08
2018-09-25T18:12:03.727Z,47.62
2018-09-25T18:14:39.650Z,47.68
2018-09-25T18:17:15.131Z,47.37
2018-09-25T18:19:50.687Z,47.82
2018-09-25T18:22:26.806Z,47.98
2018-09-25T18:25:02.301Z,48.29
2018-09-25T18:27:38.350Z,48.76
2018-09-25T18:30:14.044Z,49.03
2018-09-25T18:32:49.726Z,48.42
2018-09-25T18:35:25.392Z,48.27
2018-09-25T18:38:01.046Z,47.43
2018-09-25T18:40:36.539Z,47.50
2018-09-25T18:43:12.271Z,47.27
2018-09-25T18:45:48.091Z,46.78
2018-09-25T18:48:23.833Z,46.36
2018-09-25T18:51:00.270Z,46.13
2018-09-25T18:53:35.769Z,45.88
2018-09-25T18:56:11.298Z,46.43
2018-09-25T18:58:47.013Z,46.60
2018-09-25T19:01:22.538Z,46.80
2018-09-25T19:03:57.995Z,47.16
2018-09-25T19:06:33.479Z,47.32
2018-09-25T19:09:09.645Z,47.58
2018-09-25T19:11:45.345Z,47.29
2018-09-25T19:14:21.509Z,47.82
2018-09-25T19:16:57.352Z,48.64
2018-09-25T19:19:33.259Z,49.53
2018-09-25T19:22:08.808Z,49.66
2018-09-25T19:24:44.658Z,50.57
2018-09-25T19:27:20.467Z,50.71
2018-09-25T19:29:56.313Z,51.06
2018-09-25T19:32:31.933Z,51.22
2018-09-25T19:35:07.558Z,51.40
2018-09-25T19:37:43.260Z,51.23
2018-09-25T19:40:19.101Z,51.12
2018-09-25T19:42:55.033Z,51.30
2018-09-25T19:45:30.551Z,51.44
2018-09-25T19:48:06.696Z,52.06
2018-09-25T19:50:42.551Z,52.12
2018-09-25T19:53:18.277Z,52.35
2018-09-25T19:55:54.144Z,52.23
2018-09-25T19:58:29.882Z,52.37
2018-09-25T20:01:05.706Z,52.42
2018-09-25T20:03:41.489Z,52.80
2018-09-25T20:06:17.071Z,52.99
2018-09-25T20:08:54.494Z,53.64
2018-09-25T20:11:30.194Z,53.51
2018-09-25T20:14:06.120Z,53.70
2018-09-25T20:16:41.956Z,54.05
2018-09-25T20:19:17.808Z,54.11
2018-09-25T20:21:53.418Z,54.38
2018-09-25T20:24:29.213Z,54.42
2018-09-25T20:27:05.589Z,54.98
2018-09-25T20:29:41.517Z,55.29
2018-09-25T20:32:17.578Z,55.60
2018-09-25T20:34:53.056Z,55.78
2018-09-25T20:37:28.890Z,55.88
2018-09-25T20:40:04.844Z,56.04
2018-09-25T20:42:40.619Z,56.34
2018-09-25T20:45:16.196Z,56.77
2018-09-25T20:47:52.025Z,57.06
2018-09-25T20:50:27.918Z,57.06
2018-09-25T20:53:07.094Z,57.05
2018-09-25T20:55:42.655Z,57.43
2018-09-25T20:58:18.337Z,57.41
2018-09-25T21:00:54.168Z,57.67
2018-09-25T21:03:29.688Z,57.85
2018-09-25T21:06:05.694Z,57.93
2018-09-25T21:08:41.468Z,57.88
2018-09-25T21:11:17.351Z,58.15
2018-09-25T21:13:54.353Z,58.28
2018-09-25T21:16:29.898Z,58.55
2018-09-25T21:19:05.490Z,58.03
2018-09-25T21:21:40.807Z,58.14
2018-09-25T21:24:16.848Z,57.95
2018-09-25T21:26:52.601Z,58.20
2018-09-25T21:29:28.453Z,58.16
2018-09-25T21:32:04.144Z,58.57
2018-09-25T21:34:40.229Z,58.37
2018-09-25T21:37:16.531Z,58.35
2018-09-25T21:39:52.285Z,57.68
2018-09-25T21:42:27.984Z,58.09
2018-09-25T21:45:03.933Z,57.67
2018-09-25T21:47:39.876Z,57.91
2018-09-25T21:50:15.719Z,58.43
2018-09-25T21:52:51.508Z,58.02
2018-09-25T21:55:27.383Z,57.35
2018-09-25T21:58:03.340Z,56.78
2018-09-25T22:00:40.752Z,57.57
2018-09-25T22:03:16.369Z,57.50
2018-09-25T22:05:52.013Z,57.04
2018-09-25T22:08:27.645Z,56.73
2018-09-25T22:11:03.110Z,56.96
2018-09-25T22:13:38.797Z,56.87
2018-09-25T22:16:14.308Z,56.62
2018-09-25T22:18:49.834Z,56.44
2018-09-25T22:21:25.347Z,56.14
2018-09-25T22:24:01.150Z,55.66
2018-09-25T22:26:38.911Z,55.46
2018-09-25T22:29:15.546Z,55.77
2018-09-25T22:31:51.364Z,56.18
2018-09-25T22:34:27.207Z,56.39
2018-09-25T22:37:03.121Z,56.17
2018-09-25T22:39:38.956Z,55.95
2018-09-25T22:42:14.780Z,55.96
2018-09-25T22:44:50.455Z,55.82
2018-09-25T22:47:25.975Z,55.55
2018-09-25T22:50:01.831Z,55.28
2018-09-25T22:52:37.253Z,54.93
2018-09-25T22:55:13.152Z,54.91
2018-09-25T22:57:48.714Z,54.62
2018-09-25T23:00:24.557Z,54.50
2018-09-25T23:03:00.138Z,54.60
2018-09-25T23:05:35.790Z,54.76
2018-09-25T23:08:12.342Z,54.17
2018-09-25T23:10:47.903Z,53.97
2018-09-25T23:13:23.774Z,53.29
2018-09-25T23:15:59.468Z,53.62
2018-09-25T23:18:35.310Z,53.82
2018-09-25T23:21:11.461Z,54.28
2018-09-25T23:23:46.848Z,54.53
2018-09-25T23:26:22.394Z,54.53
2018-09-25T23:28:58.004Z,54.22
2018-09-25T23:31:33.646Z,54.90
2018-09-25T23:34:09.615Z,54.95
2018-09-25T23:36:45.619Z,54.61
2018-09-25T23:39:20.399Z,55.11
2018-09-25T23:41:58.084Z,55.63
2018-09-25T23:46:35.627Z,56.18
2018-09-25T23:49:11.224Z,57.83
2018-09-25T23:51:46.496Z,57.48
2018-09-25T23:54:35.852Z,57.38
2018-09-25T23:57:12.083Z,56.79
2018-09-25T23:59:47.785Z,56.74
